Time;durP1;ratioP1;P1;durP2;ratioP2;P2;SDS_P1;SDS_P2;PMS_P1;PMS_P2;Temp;Humidity;BMP_temperature;BMP_pressure;BME280_temperature;BME280_humidity;BME280_pressure;Samples;Min_cycle;Max_cycle;Signal;HPM_P1;HPM_P2
2021/05/16 00:01:04;;;;;;;;;;;8.20;99.90;;;;;;5064915;28;20048;-59
2021/05/16 00:03:30;;;;;;;5.88;2.15;;;8.20;99.90;;;;;;5070234;28;19923;-59
2021/05/16 00:05:55;;;;;;;;;;;8.20;99.90;;;;;;5065164;28;20476;-60
2021/05/16 00:08:21;;;;;;;8.32;1.92;;;8.20;99.90;;;;;;5065411;28;19947;-58
2021/05/16 00:10:46;;;;;;;;;;;8.20;99.90;;;;;;5065364;28;20086;-60
2021/05/16 00:13:13;;;;;;;7.65;2.75;;;8.30;99.90;;;;;;5065223;28;19962;-59
2021/05/16 00:15:39;;;;;;;7.72;1.85;;;8.30;99.90;;;;;;5063754;28;20041;-58
2021/05/16 00:18:05;;;;;;;9.00;2.00;;;8.30;99.90;;;;;;5056095;28;20508;-57
2021/05/16 00:20:31;;;;;;;;;;;8.30;99.90;;;;;;5052481;28;20515;-57
2021/05/16 00:22:57;;;;;;;8.10;2.07;;;8.30;99.90;;;;;;5051543;28;19923;-59
2021/05/16 00:25:24;;;;;;;6.38;2.13;;;8.30;99.90;;;;;;5051300;28;20036;-60
2021/05/16 00:27:50;;;;;;;7.70;2.22;;;8.40;99.90;;;;;;5045064;28;20382;-60
2021/05/16 00:30:19;;;;;;;9.15;1.95;;;8.30;99.90;;;;;;5050680;28;20489;-60
2021/05/16 00:32:45;;;;;;;7.13;2.45;;;8.40;99.90;;;;;;5051752;28;20068;-60
2021/05/16 00:35:13;;;;;;;7.78;2.15;;;8.40;99.90;;;;;;5050483;28;20033;-59
2021/05/16 00:37:39;;;;;;;3.67;2.10;;;8.40;99.90;;;;;;5052263;28;20036;-59
2021/05/16 00:40:05;;;;;;;;;;;8.40;99.90;;;;;;5050641;28;20503;-60
2021/05/16 00:42:31;;;;;;;11.63;3.10;;;8.30;99.90;;;;;;5051165;28;19920;-59
2021/05/16 00:45:12;;;;;;;;;;;8.40;99.90;;;;;;5052402;28;20378;-59
2021/05/16 00:47:39;;;;;;;4.35;1.75;;;8.30;99.90;;;;;;5051236;28;19920;-59
2021/05/16 00:50:10;;;;;;;6.72;2.45;;;8.40;99.90;;;;;;5049879;28;20080;-59
2021/05/16 00:52:39;;;;;;;3.97;1.60;;;8.40;99.90;;;;;;5050409;28;20415;-60
2021/05/16 00:55:06;;;;;;;3.35;1.80;;;8.30;99.90;;;;;;5051028;28;20599;-59
2021/05/16 00:57:31;;;;;;;7.90;2.50;;;8.30;99.90;;;;;;5062109;28;20351;-59
2021/05/16 00:59:57;;;;;;;;;;;8.30;99.90;;;;;;5071104;28;20511;-55
2021/05/16 01:02:23;;;;;;;7.18;2.58;;;8.30;99.90;;;;;;5064456;28;20345;-58
2021/05/16 01:04:51;;;;;;;7.15;2.70;;;8.30;99.90;;;;;;5064892;28;20047;-57
2021/05/16 01:07:17;;;;;;;12.85;3.20;;;8.30;99.90;;;;;;5069614;28;20079;-56
2021/05/16 01:09:42;;;;;;;;;;;8.20;99.90;;;;;;5071785;28;20032;-58
2021/05/16 01:12:09;;;;;;;14.32;2.80;;;8.30;99.90;;;;;;5070230;28;20334;-56
2021/05/16 01:14:39;;;;;;;9.52;2.30;;;8.30;99.90;;;;;;5070630;28;20047;-58
2021/05/16 01:17:04;;;;;;;12.80;3.30;;;8.30;99.90;;;;;;5070039;28;20048;-58
2021/05/16 01:19:31;;;;;;;;;;;8.30;99.90;;;;;;5071013;28;20089;-59
2021/05/16 01:21:57;;;;;;;9.75;4.30;;;8.30;99.90;;;;;;5070087;28;19956;-57
2021/05/16 01:24:24;;;;;;;11.90;3.70;;;8.30;99.90;;;;;;5070072;28;20049;-58
2021/05/16 01:26:50;;;;;;;12.18;3.72;;;8.20;99.90;;;;;;5070777;28;20048;-55
2021/05/16 01:29:18;;;;;;;15.77;4.38;;;8.30;99.90;;;;;;5072654;28;20496;-58
2021/05/16 01:31:44;;;;;;;10.63;4.22;;;8.30;99.90;;;;;;5080475;28;20040;-59
2021/05/16 01:34:10;;;;;;;;;;;8.30;99.90;;;;;;5087694;28;20039;-59
2021/05/16 01:36:36;;;;;;;13.73;3.83;;;8.20;99.90;;;;;;5075555;28;19926;-56
2021/05/16 01:39:03;;;;;;;;;;;8.20;99.90;;;;;;5073899;28;20040;-58
2021/05/16 01:41:29;;;;;;;9.15;3.65;;;8.30;99.90;;;;;;5081678;28;19916;-59
2021/05/16 01:43:56;;;;;;;;;;;8.30;99.90;;;;;;5090607;28;20032;-58
2021/05/16 01:46:21;;;;;;;14.32;3.67;;;8.20;99.90;;;;;;5090103;28;19924;-59
2021/05/16 01:48:47;;;;;;;;;;;8.20;99.90;;;;;;5077587;28;20103;-58
2021/05/16 01:51:13;;;;;;;14.77;4.40;;;8.20;99.90;;;;;;5069870;28;19916;-58
2021/05/16 01:53:40;;;;;;;;;;;8.20;99.90;;;;;;5069891;28;20089;-58
2021/05/16 01:56:07;;;;;;;15.20;3.40;;;8.10;99.90;;;;;;5069682;28;19924;-58
2021/05/16 01:58:35;;;;;;;11.98;3.72;;;8.20;99.90;;;;;;5070123;28;20769;-57
2021/05/16 02:01:02;;;;;;;15.07;4.28;;;8.20;99.90;;;;;;5068693;28;20031;-55
2021/05/16 02:03:30;;;;;;;13.30;3.67;;;8.10;99.90;;;;;;5068966;28;20047;-56
2021/05/16 02:05:56;;;;;;;11.32;2.90;;;8.10;99.90;;;;;;5067824;28;20146;-59
2021/05/16 02:08:22;;;;;;;;;;;8.10;99.90;;;;;;5070662;28;20076;-59
2021/05/16 02:10:48;;;;;;;11.82;3.03;;;8.10;99.90;;;;;;5069229;28;19916;-59
2021/05/16 02:13:13;;;;;;;;;;;8.10;99.90;;;;;;5069307;28;20054;-58
2021/05/16 02:15:39;;;;;;;13.63;3.45;;;8.10;99.90;;;;;;5069116;28;19920;-59
2021/05/16 02:18:05;;;;;;;;;;;8.10;99.90;;;;;;5069907;28;20044;-56
2021/05/16 02:20:31;;;;;;;17.65;2.97;;;8.10;99.90;;;;;;5068962;28;19920;-59
2021/05/16 02:22:56;;;;;;;;;;;8.10;99.90;;;;;;5069739;28;20048;-59
2021/05/16 02:25:22;;;;;;;9.35;2.80;;;8.10;99.90;;;;;;5076474;28;19920;-57
2021/05/16 02:27:48;;;;;;;;;;;8.10;99.90;;;;;;5083881;28;20121;-59
2021/05/16 02:30:15;;;;;;;20.88;3.30;;;;;;;;;;5069821;28;20285;-59
2021/05/16 02:32:41;;;;;;;11.77;2.90;;;;;;;;;;5072462;28;20496;-55
2021/05/16 02:35:10;;;;;;;10.18;2.97;;;;;;;;;;5067950;28;20116;-59
2021/05/16 02:37:36;;;;;;;13.75;2.67;;;;;;;;;;5069236;28;20531;-58
2021/05/16 02:40:02;;;;;;;;;;;;;;;;;;5069235;28;20033;-59
2021/05/16 02:42:28;;;;;;;17.55;2.58;;;;;;;;;;5069302;28;19950;-59
2021/05/16 02:44:54;;;;;;;;;;;;;;;;;;5069263;28;20038;-59
2021/05/16 02:47:20;;;;;;;18.35;3.15;;;;;;;;;;5068284;28;20007;-57
2021/05/16 02:49:46;;;;;;;;;;;;;;;;;;5069517;28;20028;-56
2021/05/16 02:52:12;;;;;;;9.85;3.05;;;;;;;;;;5068465;28;19970;-58
2021/05/16 02:54:38;;;;;;;;;;;;;;;;;;5068561;28;20040;-59
2021/05/16 02:57:04;;;;;;;12.95;3.47;;;;;;;;;;5069846;28;19916;-59
2021/05/16 02:59:30;;;;;;;18.65;3.90;;;;;;;;;;5068351;28;20037;-59
2021/05/16 03:01:56;;;;;;;23.17;3.40;;;;;;;;;;5067789;28;20033;-58
2021/05/16 03:04:22;;;;;;;17.42;2.55;;;;;;;;;;5072525;28;20384;-59
2021/05/16 03:06:48;;;;;;;;;;;;;;;;;;5069150;28;20093;-56
2021/05/16 03:09:14;;;;;;;10.23;2.35;;;;;;;;;;5069043;28;19924;-57
2021/05/16 03:11:40;;;;;;;;;;;;;;;;;;5068802;28;20032;-59
2021/05/16 03:14:08;;;;;;;13.35;2.78;;;;;;;;;;5068956;28;19916;-59
2021/05/16 03:16:34;;;;;;;12.45;2.78;;;;;;;;;;5067978;28;20044;-60
2021/05/16 03:18:59;;;;;;;;;;;;;;;;;;5068934;28;20040;-58
2021/05/16 03:21:25;;;;;;;13.43;2.30;;;;;;;;;;5067418;28;20394;-59
2021/05/16 03:23:51;;;;;;;;;;;;;;;;;;5068771;28;20035;-60
2021/05/16 03:26:17;;;;;;;8.18;1.92;;;;;;;;;;5060286;28;19924;-57
2021/05/16 03:28:43;;;;;;;17.35;2.90;;;;;;;;;;5067870;28;20044;-59
2021/05/16 03:31:09;;;;;;;;;;;;;;;;;;5068598;28;20515;-61
2021/05/16 03:33:35;;;;;;;16.33;3.35;;;;;;;;;;5068701;28;19921;-60
2021/05/16 03:36:01;;;;;;;;;;;;;;;;;;5068294;28;20045;-61
2021/05/16 03:38:27;;;;;;;16.27;2.22;;;;;;;;;;5068132;28;20415;-59
2021/05/16 03:40:53;;;;;;;;;;;;;;;;;;5069560;28;20045;-60
2021/05/16 03:43:20;;;;;;;14.00;2.90;;;;;;;;;;5069013;28;20003;-59
2021/05/16 03:45:46;;;;;;;11.63;2.60;;;;;;;;;;5064965;28;20054;-60
2021/05/16 03:48:12;;;;;;;18.85;3.58;;;;;;;;;;5069277;28;20040;-63
2021/05/16 03:50:38;;;;;;;;;;;;;;;;;;5069199;28;20036;-60
2021/05/16 03:53:04;;;;;;;18.55;3.00;;;;;;;;;;5070021;28;19921;-60
2021/05/16 03:55:30;;;;;;;20.23;4.60;;;;;;;;;;5072416;28;20152;-60
2021/05/16 03:57:57;;;;;;;16.02;3.10;;;;;;;;;;5086840;28;20039;-61
2021/05/16 04:00:23;;;;;;;15.80;3.22;;;;;;;;;;5092003;28;20421;-59
2021/05/16 04:02:49;;;;;;;17.65;3.17;;;;;;;;;;5088602;28;20039;-56
2021/05/16 04:05:15;;;;;;;;;;;;;;;;;;5072190;28;20044;-58
2021/05/16 04:07:41;;;;;;;18.10;3.17;;;;;;;;;;5069534;28;20272;-59
2021/05/16 04:10:08;;;;;;;20.33;3.22;;;;;;;;;;5071738;28;20116;-59
2021/05/16 04:12:34;;;;;;;23.73;4.53;;;;;;;;;;5071558;28;20037;-59
2021/05/16 04:15:00;;;;;;;;;;;;;;;;;;5072119;28;20136;-58
2021/05/16 04:17:26;;;;;;;16.83;3.40;;;;;;;;;;5071096;28;20016;-59
2021/05/16 04:19:52;;;;;;;11.50;2.92;;;;;;;;;;5071172;28;20040;-58
2021/05/16 04:22:18;;;;;;;12.82;3.42;;;;;;;;;;5071296;28;20044;-59
2021/05/16 04:24:44;;;;;;;;;;;;;;;;;;5072068;28;20037;-60
2021/05/16 04:27:10;;;;;;;16.23;2.70;;;;;;;;;;5070747;28;19931;-58
2021/05/16 04:29:36;;;;;;;;;;;;;;;;;;5071678;28;20055;-60
2021/05/16 04:32:02;;;;;;;28.83;3.92;;;;;;;;;;5064781;28;19960;-57
2021/05/16 04:34:28;;;;;;;21.15;2.83;;;;;;;;;;5071710;28;20048;-57
2021/05/16 04:36:54;;;;;;;;;;;;;;;;;;5072174;28;20042;-58
2021/05/16 04:39:20;;;;;;;18.90;2.70;;;;;;;;;;5071453;28;20321;-57
2021/05/16 04:41:46;;;;;;;;;;;;;;;;;;5071967;28;20040;-58
2021/05/16 04:44:12;;;;;;;18.48;2.85;;;;;;;;;;5071146;28;20019;-58
2021/05/16 04:46:38;;;;;;;;;;;;;;;;;;5070932;28;20153;-60
2021/05/16 04:49:04;;;;;;;19.10;2.65;;;;;;;;;;5071464;28;19916;-58
2021/05/16 04:51:30;;;;;;;11.25;1.90;;;;;;;;;;5070169;28;20094;-63
2021/05/16 04:53:56;;;;;;;10.13;2.40;;;;;;;;;;5070084;28;20040;-60
2021/05/16 04:56:22;;;;;;;;;;;;;;;;;;5068943;28;20127;-60
2021/05/16 04:58:48;;;;;;;12.50;2.25;;;;;;;;;;5066839;28;20011;-61
2021/05/16 05:01:14;;;;;;;;;;;;;;;;;;5070551;28;20043;-61
2021/05/16 05:03:40;;;;;;;11.30;2.15;;;;;;;;;;5070035;28;20320;-60
2021/05/16 05:06:06;;;;;;;12.93;2.03;;;;;;;;;;5069794;28;20076;-61
2021/05/16 05:08:32;;;;;;;;;;;;;;;;;;5071287;28;20083;-61
2021/05/16 05:10:58;;;;;;;10.70;2.08;;;;;;;;;;5069442;28;19924;-60
2021/05/16 05:13:25;;;;;;;12.65;2.20;;;;;;;;;;5070382;28;20033;-62
2021/05/16 05:15:51;;;;;;;10.40;2.25;;;;;;;;;;5068469;28;20040;-62
2021/05/16 05:18:18;;;;;;;17.30;4.03;;;;;;;;;;5070560;28;20040;-59
2021/05/16 05:20:44;;;;;;;14.52;2.97;;;;;;;;;;5070917;28;20040;-62
2021/05/16 05:23:10;;;;;;;8.93;2.65;;;;;;;;;;5072203;28;20033;-60
2021/05/16 05:25:36;;;;;;;;;;;;;;;;;;5083028;28;20248;-62
2021/05/16 05:28:02;;;;;;;13.45;2.55;;;;;;;;;;5065923;28;20452;-62
2021/05/16 05:30:29;;;;;;;12.88;2.42;;;;;;;;;;5070050;28;20040;-61
2021/05/16 05:32:55;;;;;;;15.05;3.17;;;;;;;;;;5069698;28;20087;-60
2021/05/16 05:35:21;;;;;;;12.50;2.65;;;;;;;;;;5067860;28;20715;-60
2021/05/16 05:37:47;;;;;;;16.02;3.00;;;;;;;;;;5067611;28;20051;-61
2021/05/16 05:40:13;;;;;;;;;;;;;;;;;;5070856;28;20055;-60
2021/05/16 05:42:39;;;;;;;12.30;2.03;;;;;;;;;;5070400;28;19916;-61
2021/05/16 05:45:06;;;;;;;10.25;2.05;;;;;;;;;;5069971;28;20048;-60
2021/05/16 05:47:32;;;;;;;15.85;1.95;;;;;;;;;;5070476;28;20045;-59
2021/05/16 05:49:58;;;;;;;;;;;;;;;;;;5070617;28;20040;-61
2021/05/16 05:52:24;;;;;;;11.48;2.28;;;;;;;;;;5068414;28;19923;-61
2021/05/16 05:54:50;;;;;;;;;;;;;;;;;;5070436;28;20044;-51
2021/05/16 05:57:16;;;;;;;16.23;2.67;;;;;;;;;;5075598;28;19920;-57
2021/05/16 05:59:42;;;;;;;;;;;;;;;;;;5070402;28;20044;-59
2021/05/16 06:02:08;;;;;;;7.97;1.75;;;;;;;;;;5068849;28;19973;-58
2021/05/16 06:04:35;;;;;;;16.80;2.00;;;;;;;;;;5068083;28;20058;-59
2021/05/16 06:07:01;;;;;;;8.23;2.63;;;;;;;;;;5069756;28;20036;-59
2021/05/16 06:09:27;;;;;;;7.50;1.92;;;;;;;;;;5069468;28;20033;-60
2021/05/16 06:11:53;;;;;;;17.10;2.72;;;;;;;;;;5068893;28;20040;-67
2021/05/16 06:14:21;;;;;;;10.38;2.28;;;;;;;;;;5070845;28;20031;-62
2021/05/16 06:16:47;;;;;;;11.93;2.65;;;;;;;;;;5076822;28;20044;-62
2021/05/16 06:19:13;;;;;;;;;;;;;;;;;;5075038;28;20036;-61
2021/05/16 06:21:39;;;;;;;9.77;1.90;;;;;;;;;;5081165;28;19948;-60
2021/05/16 06:24:06;;;;;;;;;;;;;;;;;;5071692;28;20047;-61
2021/05/16 06:26:35;;;;;;;9.50;2.10;;;;;;;;;;5069245;28;19927;-60
2021/05/16 06:29:01;;;;;;;11.75;2.50;;;;;;;;;;5076120;28;20044;-60
2021/05/16 06:31:27;;;;;;;14.70;2.38;;;;;;;;;;5082456;28;20036;-60
2021/05/16 06:33:54;;;;;;;;;;;;;;;;;;5088044;28;20036;-64
2021/05/16 06:36:20;;;;;;;6.47;2.00;;;;;;;;;;5077567;28;20001;-60
2021/05/16 06:38:46;;;;;;;;;;;;;;;;;;5081474;28;20068;-60
2021/05/16 06:41:12;;;;;;;11.05;1.90;;;;;;;;;;5081412;28;19916;-60
2021/05/16 06:43:38;;;;;;;8.63;1.85;;;;;;;;;;5089056;28;20040;-59
2021/05/16 06:46:04;;;;;;;;;;;;;;;;;;5089157;28;20598;-60
2021/05/16 06:48:30;;;;;;;11.90;2.85;;;;;;;;;;5084680;28;20015;-59
2021/05/16 06:50:56;;;;;;;;;;;;;;;;;;5077485;28;20045;-58
2021/05/16 06:53:21;;;;;;;9.65;1.80;;;;;;;;;;5074948;28;19972;-59
2021/05/16 06:55:47;;;;;;;;;;;;;;;;;;5080183;28;20086;-58
2021/05/16 06:58:14;;;;;;;9.57;1.95;;;;;;;;;;5076828;28;19923;-59
2021/05/16 07:00:40;;;;;;;11.40;1.98;;;;;;;;;;5079515;28;20040;-59
2021/05/16 07:03:06;;;;;;;;;;;;;;;;;;5080800;28;20085;-55
2021/05/16 07:05:32;;;;;;;14.57;3.13;;;;;;;;;;5088329;28;20753;-57
2021/05/16 07:07:58;;;;;;;;;;;;;;;;;;5089533;28;20102;-58
2021/05/16 07:10:24;;;;;;;12.73;2.20;;;;;;;;;;5089019;28;20322;-59
2021/05/16 07:12:50;;;;;;;;;;;;;;;;;;5088928;28;20067;-59
2021/05/16 07:15:16;;;;;;;8.27;1.85;;;;;;;;;;5087399;28;20391;-60
2021/05/16 07:17:43;;;;;;;9.25;2.20;;;;;;;;;;5080348;28;20044;-60
2021/05/16 07:20:09;;;;;;;10.52;2.22;;;;;;;;;;5088014;28;20044;-58
2021/05/16 07:22:35;;;;;;;11.18;2.03;;;;;;;;;;5089217;28;20036;-60
2021/05/16 07:25:01;;;;;;;;;;;;;;;;;;5088726;28;20119;-59
2021/05/16 07:27:27;;;;;;;10.15;2.13;;;;;;;;;;5077683;28;20027;-59
2021/05/16 07:29:54;;;;;;;;;;;;;;;;;;5073129;28;20040;-59
2021/05/16 07:32:20;;;;;;;13.80;2.60;;;;;;;;;;5072135;28;19916;-59
2021/05/16 07:34:45;;;;;;;;;;;;;;;;;;5066449;28;20052;-58
2021/05/16 07:37:12;;;;;;;14.40;2.75;;;;;;;;;;5070672;28;20284;-57
2021/05/16 07:39:37;;;;;;;16.67;2.45;;;;;;;;;;5072586;28;20040;-59
2021/05/16 07:42:03;;;;;;;;;;;;;;;;;;5072068;28;20037;-56
2021/05/16 07:44:29;;;;;;;10.82;2.30;;;;;;;;;;5070473;28;19973;-60
2021/05/16 07:46:55;;;;;;;;;;;;;;;;;;5079636;28;20049;-60
2021/05/16 07:49:21;;;;;;;7.75;2.38;;;;;;;;;;5092313;28;19931;-60
2021/05/16 07:51:47;;;;;;;10.00;2.25;;;;;;;;;;5081750;28;20547;-60
2021/05/16 07:54:14;;;;;;;9.10;2.25;;;;;;;;;;5072344;28;20037;-60
2021/05/16 07:56:39;;;;;;;;;;;;;;;;;;5072626;28;20098;-60
2021/05/16 07:59:05;;;;;;;11.15;3.03;;;;;;;;;;5072800;28;19920;-60
2021/05/16 08:01:31;;;;;;;12.93;3.22;;;;;;;;;;5072018;28;20032;-60
2021/05/16 08:03:58;;;;;;;7.13;1.90;;;;;;;;;;5071518;28;20042;-59
2021/05/16 08:06:24;;;;;;;8.02;1.80;;;;;;;;;;5071540;28;20049;-59
2021/05/16 08:08:50;;;;;;;10.40;2.30;;;;;;;;;;5071539;28;20044;-59
2021/05/16 08:11:16;;;;;;;;;;;;;;;;;;5072035;28;20101;-59
2021/05/16 08:13:42;;;;;;;11.25;1.65;;;;;;;;;;5071285;28;19922;-59
2021/05/16 08:16:08;;;;;;;;;;;;;;;;;;5071709;28;20132;-59
2021/05/16 08:18:34;;;;;;;9.68;2.20;;;;;;;;;;5070995;28;20343;-59
2021/05/16 08:20:59;;;;;;;;;;;;;;;;;;5071742;28;20451;-59
2021/05/16 08:23:25;;;;;;;8.60;2.45;;;;;;;;;;5071065;28;19966;-59
2021/05/16 08:25:51;;;;;;;;;;;;;;;;;;5067520;28;20120;-59
2021/05/16 08:28:17;;;;;;;10.52;3.58;;;;;;;;;;5069412;28;19916;-58
2021/05/16 08:30:43;;;;;;;;;;;;;;;;;;5071242;28;20064;-59
2021/05/16 08:33:09;;;;;;;11.63;2.15;;;;;;;;;;5070922;28;20647;-59
2021/05/16 08:35:35;;;;;;;;;;;;;;;;;;5071763;28;20068;-59
2021/05/16 08:38:01;;;;;;;12.98;3.45;;;;;;;;;;5070876;28;20376;-59
2021/05/16 08:40:27;;;;;;;;;;;;;;;;;;5071815;28;20064;-58
2021/05/16 08:42:53;;;;;;;13.55;1.90;;;;;;;;;;5070524;28;20395;-59
2021/05/16 08:45:19;;;;;;;;;;;;;;;;;;5071197;28;20586;-57
2021/05/16 08:47:46;;;;;;;17.33;5.03;;;;;;;;;;5070831;28;19924;-59
2021/05/16 08:50:14;;;;;;;12.52;3.00;;;;;;;;;;5070983;28;20064;-58
2021/05/16 08:52:40;;;;;;;7.22;1.95;;;;;;;;;;5070830;28;20041;-58
2021/05/16 08:55:06;;;;;;;;;;;;;;;;;;5071195;28;20048;-58
2021/05/16 08:57:32;;;;;;;11.18;2.70;;;;;;;;;;5076418;28;19984;-58
2021/05/16 08:59:58;;;;;;;;;;;;;;;;;;5070979;28;20037;-56
2021/05/16 09:02:24;;;;;;;10.15;2.28;;;;;;;;;;5070604;28;19920;-55
2021/05/16 09:04:49;;;;;;;;;;;;;;;;;;5070609;28;20094;-58
2021/05/16 09:07:16;;;;;;;5.18;1.17;;;;;;;;;;5070235;28;19935;-57
2021/05/16 09:09:42;;;;;;;7.60;1.65;;;;;;;;;;5070764;28;20131;-58
2021/05/16 09:12:08;;;;;;;;;;;;;;;;;;5070049;28;20193;-58
2021/05/16 09:14:53;;;;;;;3.05;1.20;;;;;;;;;;5070140;28;19970;-59
2021/05/16 09:17:23;;;;;;;7.10;2.50;;;;;;;;;;5070166;28;20036;-57
2021/05/16 09:19:51;;;;;;;4.53;1.02;;;;;;;;;;5070502;28;20510;-59
2021/05/16 09:22:37;;;;;;;2.00;0.98;;;;;;;;;;5069491;28;20437;-58
2021/05/16 09:25:13;;;;;;;5.28;1.20;;;;;;;;;;5069942;28;20446;-59
2021/05/16 09:27:40;;;;;;;5.60;1.40;;;;;;;;;;5061814;28;20051;-59
2021/05/16 09:30:18;;;;;;;3.63;1.00;;;;;;;;;;5067371;28;20044;-59
2021/05/16 09:33:01;;;;;;;2.83;0.65;;;;;;;;;;5068432;22;20049;-61
2021/05/16 09:35:32;;;;;;;3.53;0.70;;;;;;;;;;5031272;22;20092;-64
2021/05/16 09:38:03;;;;;;;1.42;0.50;;;;;;;;;;5062367;22;20036;-64
2021/05/16 09:40:30;;;;;;;3.72;0.77;;;;;;;;;;5080497;28;20040;-64
2021/05/16 09:43:10;;;;;;;1.90;0.80;;;;;;;;;;5071960;28;20036;-64
2021/05/16 09:45:48;;;;;;;3.50;0.63;;;;;;;;;;5075034;28;20032;-63
2021/05/16 09:48:18;;;;;;;12.38;7.38;;;;;;;;;;5065149;28;20040;-63
2021/05/16 09:50:44;;;;;;;3.38;1.50;;;;;;;;;;5072448;28;20040;-59
2021/05/16 09:53:10;;;;;;;;;;;;;;;;;;5073457;28;20116;-61
2021/05/16 09:55:37;;;;;;;2.85;1.17;;;;;;;;;;5073419;28;19916;-61
2021/05/16 09:58:04;;;;;;;2.90;0.80;;;;;;;;;;5080976;28;20053;-59
2021/05/16 10:00:30;;;;;;;2.03;1.08;;;;;;;;;;5060044;28;20052;-60
2021/05/16 10:02:56;;;;;;;3.35;1.67;;;;;;;;;;5061807;28;20139;-60
2021/05/16 10:05:22;;;;;;;;;;;;;;;;;;5066233;28;20404;-59
2021/05/16 10:07:48;;;;;;;4.82;1.48;;;;;;;;;;5065280;28;20011;-60
2021/05/16 10:10:15;;;;;;;12.10;9.20;;;;;;;;;;5089268;28;20047;-60
2021/05/16 10:12:42;;;;;;;6.65;2.25;;;;;;;;;;5074537;28;20071;-59
2021/05/16 10:15:16;;;;;;;1.85;1.10;;;;;;;;;;5068339;28;20036;-59
2021/05/16 10:17:43;;;;;;;2.45;1.13;;;;;;;;;;5068722;28;20048;-60
2021/05/16 10:20:10;;;;;;;3.55;1.35;;;;;;;;;;5062685;28;20452;-58
2021/05/16 10:22:39;;;;;;;4.75;2.47;;;;;;;;;;5069317;28;20484;-59
2021/05/16 10:25:05;;;;;;;5.82;1.88;;;;;;;;;;5068481;28;20570;-58
2021/05/16 10:27:34;;;;;;;3.17;1.33;;;;;;;;;;5063218;28;20036;-57
2021/05/16 10:30:01;;;;;;;2.75;1.20;;;;;;;;;;5080539;28;20512;-58
2021/05/16 10:32:32;;;;;;;2.47;1.58;;;;;;;;;;5085046;28;20047;-60
2021/05/16 10:34:59;;;;;;;3.45;0.85;;;;;;;;;;5077461;28;20040;-56
2021/05/16 10:37:40;;;;;;;2.28;1.13;;;;;;;;;;5077779;28;20047;-58
2021/05/16 10:40:23;;;;;;;9.73;4.68;;;;;;;;;;5068196;28;20041;-58
2021/05/16 10:42:50;;;;;;;2.42;0.77;;;;;;;;;;5068621;28;20040;-56
2021/05/16 10:45:24;;;;;;;1.80;0.77;;;;;;;;;;5067796;28;20120;-59
2021/05/16 10:47:51;;;;;;;9.60;5.07;;;;;;;;;;5068624;28;20047;-57
2021/05/16 10:50:23;;;;;;;3.80;1.90;;;;;;;;;;5069076;28;20036;-57
2021/05/16 10:53:00;;;;;;;2.28;1.23;;;;;;;;;;5068315;28;20044;-55
2021/05/16 10:55:27;;;;;;;2.70;1.10;;;;;;;;;;5068431;28;20468;-58
2021/05/16 10:57:53;;;;;;;4.07;0.50;;;;;;;;;;5068552;28;20051;-58
2021/05/16 11:00:19;;;;;;;;;;;;;;;;;;5060377;28;20082;-56
2021/05/16 11:02:58;;;;;;;1.33;0.50;;;;;;;;;;5064518;28;19921;-59
2021/05/16 11:08:09;;;;;;;6.97;0.70;;;;;;;;;;5088482;28;20131;-57
2021/05/16 11:10:36;;;;;;;11.77;5.65;;;;;;;;;;5089187;28;20038;-58
2021/05/16 11:13:11;;;;;;;10.48;1.42;;;;;;;;;;5088743;28;20036;-58
2021/05/16 11:15:37;;;;;;;2.40;0.68;;;;;;;;;;5087296;28;20032;-60
2021/05/16 11:18:03;;;;;;;;;;;;;;;;;;5076968;28;20052;-58
2021/05/16 11:20:29;;;;;;;3.92;2.05;;;;;;;;;;5081073;28;19916;-59
2021/05/16 11:22:58;;;;;;;3.25;2.55;;;;;;;;;;5079995;28;20052;-59
2021/05/16 11:25:24;;;;;;;2.85;0.57;;;;;;;;;;5084411;28;20075;-59
2021/05/16 11:27:50;;;;;;;1.02;0.52;;;;;;;;;;5072839;28;20128;-60
2021/05/16 11:30:16;;;;;;;;;;;;;;;;;;5057107;28;20466;-60
2021/05/16 11:32:42;;;;;;;1.60;0.30;;;;;;;;;;5072338;28;19916;-59
2021/05/16 11:35:08;;;;;;;;;;;;;;;;;;5069259;28;20040;-58
2021/05/16 11:37:34;;;;;;;0.60;0.30;;;;;;;;;;5068734;28;19924;-60
2021/05/16 11:40:00;;;;;;;;;;;;;;;;;;5068267;28;20163;-59
2021/05/16 11:42:33;;;;;;;4.47;0.38;;;;;;;;;;5068745;28;20027;-59
2021/05/16 11:44:59;;;;;;;1.20;0.40;;;;;;;;;;5067479;28;20084;-57
2021/05/16 11:47:24;;;;;;;;;;;;;;;;;;5068965;28;20067;-60
2021/05/16 11:49:50;;;;;;;1.55;0.35;;;;;;;;;;5068076;28;19916;-57
2021/05/16 11:52:16;;;;;;;;;;;;;;;;;;5071915;28;20059;-60
2021/05/16 11:54:43;;;;;;;0.85;0.20;;;;;;;;;;5080240;28;20375;-58
2021/05/16 11:57:16;;;;;;;2.28;0.50;;;;;;;;;;5038883;28;20040;-56
2021/05/16 11:59:42;;;;;;;1.75;0.40;;;;;;;;;;5061474;28;20067;-59
2021/05/16 12:02:08;;;;;;;10.38;1.08;;;;;;;;;;5054467;28;20626;-59
2021/05/16 12:04:41;;;;;;;2.45;0.35;;;;;;;;;;5080288;28;20134;-57
2021/05/16 12:07:07;;;;;;;0.98;0.32;;;;;;;;;;5059864;28;20045;-60
2021/05/16 12:09:41;;;;;;;1.73;0.40;;;;;;;;;;5073992;28;20607;-60
2021/05/16 12:12:17;;;;;;;1.52;0.47;;;;;;;;;;5068944;28;20093;-59
2021/05/16 12:14:44;;;;;;;6.40;0.82;;;;;;;;;;5070719;28;20041;-60
2021/05/16 12:17:10;;;;;;;3.63;0.52;;;;;;;;;;5071019;28;20086;-59
2021/05/16 12:19:37;;;;;;;;;;;;;;;;;;5073155;28;20063;-60
2021/05/16 12:22:04;;;;;;;2.67;0.40;;;;;;;;;;5072249;28;19916;-58
2021/05/16 12:24:32;;;;;;;2.35;0.60;;;;;;;;;;5063107;28;20222;-60
2021/05/16 12:26:58;;;;;;;1.60;0.55;;;;;;;;;;5060743;28;20434;-57
2021/05/16 12:29:25;;;;;;;0.60;0.47;;;;;;;;;;5067901;28;20048;-60
2021/05/16 12:31:51;;;;;;;2.88;0.60;;;;;;;;;;5051423;28;20043;-59
2021/05/16 12:34:17;;;;;;;2.70;0.52;;;;;;;;;;5051454;28;20040;-60
2021/05/16 12:36:58;;;;;;;5.28;1.08;;;;;;;;;;5052376;28;20644;-60
2021/05/16 12:39:44;;;;;;;1.98;0.82;;;;;;;;;;5049843;28;20448;-60
2021/05/16 12:42:28;;;;;;;4.80;0.73;;;;;;;;;;5051259;28;20055;-61
2021/05/16 12:45:13;;;;;;;1.92;0.63;;;;;;;;;;5051550;28;20115;-60
2021/05/16 12:47:39;;;;;;;3.00;0.65;;;;;;;;;;5076395;22;20043;-60
2021/05/16 12:50:05;;;;;;;;;;;;;;;;;;5104153;28;20051;-61
2021/05/16 12:52:31;;;;;;;4.10;0.73;;;;;;;;;;5093859;28;19916;-60
2021/05/16 12:54:57;;;;;;;;;;;;;;;;;;5092503;28;20039;-57
2021/05/16 12:57:41;;;;;;;2.92;1.02;;;;;;;;;;5091666;28;19916;-59
2021/05/16 13:00:08;;;;;;;1.88;0.80;;;;;;;;;;5091128;28;20036;-56
2021/05/16 13:02:38;;;;;;;5.78;0.70;;;;;;;;;;5093019;28;20048;-60
2021/05/16 13:05:13;;;;;;;4.18;1.08;;;;;;;;;;5093433;28;20482;-58
2021/05/16 13:07:42;;;;;;;4.20;0.80;;;;;;;;;;5091328;28;20051;-60
2021/05/16 13:10:27;;;;;;;4.55;0.93;;;;;;;;;;5091770;28;20048;-60
2021/05/16 13:12:53;;;;;;;2.53;0.88;;;;;;;;;;5090234;28;20032;-58
2021/05/16 13:15:19;;;;;;;;;;;;;;;;;;5089018;28;20036;-57
2021/05/16 13:17:45;;;;;;;1.77;0.57;;;;;;;;;;5070654;28;19917;-58
2021/05/16 13:20:12;;;;;;;;;;;;;;;;;;5071865;28;20068;-59
2021/05/16 13:22:42;;;;;;;2.00;0.70;;;;;;;;;;5071037;28;20001;-60
2021/05/16 13:25:09;;;;;;;2.75;0.73;;;;;;;;;;5070922;28;20051;-59
2021/05/16 13:27:36;;;;;;;2.30;0.82;;;;;;;;;;5076649;28;20064;-60
2021/05/16 13:30:05;;;;;;;2.70;0.60;;;;;;;;;;5070916;28;20423;-59
2021/05/16 13:32:31;;;;;;;6.25;1.08;;;;;;;;;;5070021;28;20041;-60
2021/05/16 13:34:57;;;;;;;;;;;;;;;;;;5068472;28;20036;-59
2021/05/16 13:37:25;;;;;;;1.73;0.80;;;;;;;;;;5062799;28;19923;-58
2021/05/16 13:39:51;;;;;;;5.55;1.42;;;;;;;;;;5070999;28;20441;-60
2021/05/16 13:42:17;;;;;;;;;;;;;;;;;;5070613;28;20571;-60
2021/05/16 13:44:44;;;;;;;3.20;0.57;;;;;;;;;;5068909;28;20038;-60
2021/05/16 13:47:10;;;;;;;4.15;0.82;;;;;;;;;;5069572;28;20158;-59
2021/05/16 13:49:36;;;;;;;;;;;;;;;;;;5070793;28;20040;-60
2021/05/16 13:52:02;;;;;;;3.47;0.70;;;;;;;;;;5068910;28;19927;-60
2021/05/16 13:54:31;;;;;;;;;;;;;;;;;;5070154;28;20500;-60
2021/05/16 13:56:57;;;;;;;1.58;0.60;;;;;;;;;;5070405;28;19943;-59
2021/05/16 13:59:23;;;;;;;4.40;0.50;;;;;;;;;;5070656;28;20065;-58
2021/05/16 14:01:51;;;;;;;;;;;;;;;;;;5069670;28;20044;-59
2021/05/16 14:04:17;;;;;;;6.22;1.65;;;;;;;;;;5069664;28;19923;-60
2021/05/16 14:06:43;;;;;;;;;;;;;;;;;;5070743;28;20111;-59
2021/05/16 14:09:10;;;;;;;4.47;0.77;;;;;;;;;;5070019;28;19927;-56
2021/05/16 14:11:36;;;;;;;2.72;0.90;;;;;;;;;;5070149;28;20127;-60
2021/05/16 14:14:03;;;;;;;3.20;0.95;;;;;;;;;;5068944;28;20051;-57
2021/05/16 14:16:30;;;;;;;7.68;1.30;;;;;;;;;;5067637;28;20071;-58
2021/05/16 14:18:58;;;;;;;3.00;0.80;;;;;;;;;;5069584;28;20071;-60
2021/05/16 14:21:25;;;;;;;3.83;0.73;;;;;;;;;;5068555;28;20043;-55
2021/05/16 14:23:51;;;;;;;6.72;0.77;;;;;;;;;;5068146;28;20036;-59
2021/05/16 14:26:18;;;;;;;8.68;1.00;;;;;;;;;;5064921;28;20037;-60
2021/05/16 14:28:44;;;;;;;4.43;0.82;;;;;;;;;;5069706;28;20131;-60
2021/05/16 14:31:10;;;;;;;2.13;0.98;;;;;;;;;;5069037;28;20059;-59
2021/05/16 14:33:36;;;;;;;;;;;;;;;;;;5069663;28;20090;-60
2021/05/16 14:36:02;;;;;;;1.55;0.57;;;;;;;;;;5068814;28;19916;-60
2021/05/16 14:38:28;;;;;;;3.80;0.93;;;;;;;;;;5069660;28;20045;-60
2021/05/16 14:40:54;;;;;;;;;;;;;;;;;;5069983;28;20041;-59
2021/05/16 14:43:21;;;;;;;7.57;0.80;;;;;;;;;;5068935;28;19917;-59
2021/05/16 14:45:47;;;;;;;2.25;0.70;;;;;;;;;;5068854;28;20041;-59
2021/05/16 14:48:14;;;;;;;3.15;0.93;;;;;;;;;;5069301;28;20549;-57
2021/05/16 14:50:44;;;;;;;3.10;0.80;;;;;;;;;;5069488;28;20040;-59